Aniara — SKJC — position and weather

sailwx.info

Track history (hours):
 
Tides and Currents Weather Stations Pressure Air Temp Water Temp Dewpoint Dewpoint Depression Visibility Wind Speed Wind Dir Waves Ship Positions

Aniara

Last reported at 2017-May-14 19:42 UTC. Time now 2017-May-23 22:25 UTC.
Position N 01°16' E 103°23'.
Warning: this ship's position is 9 days out of date.

Length 232 m; draft 9.8 m.

Type: Cargo ship. MMSI: 266282000.

Date/timePositionNaut miles runAvg speedWind from/ knotsBaromVisibWave heightAir tempDewpointWater temp
2017-May-14 19:42N 01°16' E 103°23'314.4
2017-May-14 19:30N 01°14' E 103°25'713.9
2017-May-14 19:00N 01°12' E 103°32'612.0
2017-May-14 18:30N 01°11' E 103°38'510.1
2017-May-14 18:00N 01°09' E 103°42'612.4
2017-May-14 17:30N 01°11' E 103°48'4 8.8
2017-May-14 17:00N 01°12' E 103°52'  
2017-May-07 09:27N 24°02' E 118°16'715.2
2017-May-07 09:00N 24°08' E 118°19'714.4
2017-May-07 08:30N 24°14' E 118°16'815.3
2017-May-07 08:00N 24°20' E 118°10'612.0
2017-May-07 07:31N 24°24' E 118°06'5 9.9
2017-May-07 07:01N 24°29' E 118°04'4 8.6
2017-May-07 06:30N 24°33' E 118°05'0 0.3
2017-May-07 06:00N 24°33' E 118°05'0 0.0
2017-May-07 05:25N 24°33' E 118°05'0 0.0
2017-May-07 04:55N 24°33' E 118°05'0 0.0
2017-May-07 04:25N 24°33' E 118°05'0 0.0
2017-May-07 03:43N 24°33' E 118°05'0 0.0
2017-May-07 03:25N 24°33' E 118°05'0 0.0
2017-May-07 02:49N 24°33' E 118°05'0 0.0
2017-May-07 02:25N 24°33' E 118°05'0 0.0
2017-May-07 01:55N 24°33' E 118°05'0 0.0
2017-May-07 01:19N 24°33' E 118°05'0 0.0
2017-May-07 00:55N 24°33' E 118°05'0 0.0
2017-May-07 00:25N 24°33' E 118°05'0 0.0
2017-May-06 23:49N 24°33' E 118°05'0 0.0
2017-May-06 23:25N 24°33' E 118°05'0 0.0
2017-May-06 22:55N 24°33' E 118°05'0 0.0
2017-May-06 22:19N 24°33' E 118°05'0 0.0
2017-May-06 21:55N 24°33' E 118°05'0 0.0
2017-May-06 21:25N 24°33' E 118°05'0 0.0
2017-May-06 20:49N 24°33' E 118°05'0 0.0
2017-May-06 20:13N 24°33' E 118°05'0 0.0
2017-May-06 19:55N 24°33' E 118°05'0 0.0
2017-May-06 19:13N 24°33' E 118°05'0 0.0
2017-May-06 18:43N 24°33' E 118°05'0 0.0
2017-May-06 18:25N 24°33' E 118°05'0 0.0
2017-May-06 17:49N 24°33' E 118°05'0 0.0
2017-May-06 17:25N 24°33' E 118°05'0 0.0
2017-May-06 16:43N 24°33' E 118°05'0 0.0
2017-May-06 16:25N 24°33' E 118°05'0 0.0
2017-May-06 15:55N 24°33' E 118°05'0 0.0
2017-May-06 15:25N 24°33' E 118°05'0 0.0
2017-May-06 14:55N 24°33' E 118°05'1 1.4
2017-May-06 14:01N 24°32' E 118°05'4 8.9
2017-May-06 13:31N 24°27' E 118°03'611.7
2017-May-06 13:00N 24°23' E 118°07'4 8.9
2017-May-06 12:30N 24°20' E 118°11'710.6
2017-May-06 11:51N 24°15' E 118°16'  
Track history (hours):
 
Tides and Currents Weather Stations Pressure Air Temp Water Temp Dewpoint Dewpoint Depression Visibility Wind Speed Wind Dir Waves Ship Positions

Aniara

Last reported at 2017-May-14 19:42 UTC. Time now 2017-May-23 22:25 UTC.
Position N 01°16' E 103°23'.
Warning: this ship's position is 9 days out of date.

Length 232 m; draft 9.8 m.

Type: Cargo ship. MMSI: 266282000.

Date/timePositionNaut miles runAvg speedWind from/ knotsBaromVisibWave heightAir tempDewpointWater temp
2017-May-14 19:42N 01°16' E 103°23'314.4
2017-May-14 19:30N 01°14' E 103°25'713.9
2017-May-14 19:00N 01°12' E 103°32'612.0
2017-May-14 18:30N 01°11' E 103°38'510.1
2017-May-14 18:00N 01°09' E 103°42'612.4
2017-May-14 17:30N 01°11' E 103°48'4 8.8
2017-May-14 17:00N 01°12' E 103°52'  
2017-May-07 09:27N 24°02' E 118°16'715.2
2017-May-07 09:00N 24°08' E 118°19'714.4
2017-May-07 08:30N 24°14' E 118°16'815.3
2017-May-07 08:00N 24°20' E 118°10'612.0
2017-May-07 07:31N 24°24' E 118°06'5 9.9
2017-May-07 07:01N 24°29' E 118°04'4 8.6
2017-May-07 06:30N 24°33' E 118°05'0 0.3
2017-May-07 06:00N 24°33' E 118°05'0 0.0
2017-May-07 05:25N 24°33' E 118°05'0 0.0
2017-May-07 04:55N 24°33' E 118°05'0 0.0
2017-May-07 04:25N 24°33' E 118°05'0 0.0
2017-May-07 03:43N 24°33' E 118°05'0 0.0
2017-May-07 03:25N 24°33' E 118°05'0 0.0
2017-May-07 02:49N 24°33' E 118°05'0 0.0
2017-May-07 02:25N 24°33' E 118°05'0 0.0
2017-May-07 01:55N 24°33' E 118°05'0 0.0
2017-May-07 01:19N 24°33' E 118°05'0 0.0
2017-May-07 00:55N 24°33' E 118°05'0 0.0
2017-May-07 00:25N 24°33' E 118°05'0 0.0
2017-May-06 23:49N 24°33' E 118°05'0 0.0
2017-May-06 23:25N 24°33' E 118°05'0 0.0
2017-May-06 22:55N 24°33' E 118°05'0 0.0
2017-May-06 22:19N 24°33' E 118°05'0 0.0
2017-May-06 21:55N 24°33' E 118°05'0 0.0
2017-May-06 21:25N 24°33' E 118°05'0 0.0
2017-May-06 20:49N 24°33' E 118°05'0 0.0
2017-May-06 20:13N 24°33' E 118°05'0 0.0
2017-May-06 19:55N 24°33' E 118°05'0 0.0
2017-May-06 19:13N 24°33' E 118°05'0 0.0
2017-May-06 18:43N 24°33' E 118°05'0 0.0
2017-May-06 18:25N 24°33' E 118°05'0 0.0
2017-May-06 17:49N 24°33' E 118°05'0 0.0
2017-May-06 17:25N 24°33' E 118°05'0 0.0
2017-May-06 16:43N 24°33' E 118°05'0 0.0
2017-May-06 16:25N 24°33' E 118°05'0 0.0
2017-May-06 15:55N 24°33' E 118°05'0 0.0
2017-May-06 15:25N 24°33' E 118°05'0 0.0
2017-May-06 14:55N 24°33' E 118°05'1 1.4
2017-May-06 14:01N 24°32' E 118°05'4 8.9
2017-May-06 13:31N 24°27' E 118°03'611.7
2017-May-06 13:00N 24°23' E 118°07'4 8.9
2017-May-06 12:30N 24°20' E 118°11'710.6
2017-May-06 11:51N 24°15' E 118°16'  

Dump ship's entire track history